createdAt,value
2023-05-09T00:02:09.357Z,4.00
2023-05-09T00:05:10.911Z,3.80
2023-05-09T00:08:13.152Z,3.97
2023-05-09T00:11:15.099Z,3.78
2023-05-09T00:14:17.667Z,4.45
2023-05-09T00:17:18.968Z,4.05
2023-05-09T00:20:21.116Z,4.00
2023-05-09T00:23:22.435Z,3.90
2023-05-09T00:26:24.468Z,4.30
2023-05-09T00:29:25.750Z,4.13
2023-05-09T00:32:28.490Z,4.15
2023-05-09T00:35:31.522Z,3.63
2023-05-09T00:38:33.026Z,3.80
2023-05-09T00:41:35.111Z,3.75
2023-05-09T00:44:36.539Z,3.78
2023-05-09T00:47:38.315Z,3.90
2023-05-09T00:50:40.086Z,4.10
2023-05-09T00:53:41.541Z,3.60
2023-05-09T00:56:43.957Z,3.90
2023-05-09T00:59:45.393Z,3.80
2023-05-09T01:02:50.558Z,3.42
2023-05-09T01:05:57.564Z,3.63
2023-05-09T01:09:06.712Z,3.50
2023-05-09T01:12:16.383Z,3.53
2023-05-09T01:15:24.468Z,3.63
2023-05-09T01:18:31.433Z,3.67
2023-05-09T01:21:34.884Z,3.20
2023-05-09T01:25:09.766Z,3.23
2023-05-09T01:28:16.468Z,3.10
2023-05-09T01:31:20.034Z,3.63
2023-05-09T01:34:24.991Z,3.25
2023-05-09T01:37:31.022Z,3.42
2023-05-09T01:40:34.209Z,3.77
2023-05-09T01:43:37.936Z,2.92
2023-05-09T01:46:44.164Z,3.50
2023-05-09T01:49:47.571Z,3.45
2023-05-09T01:52:53.176Z,3.88
2023-05-09T01:55:56.579Z,3.40
2023-05-09T01:59:00.851Z,3.25
2023-05-09T02:02:04.346Z,3.22
2023-05-09T02:05:08.848Z,3.40
2023-05-09T02:08:11.579Z,3.60
2023-05-09T02:11:13.426Z,3.10
2023-05-09T02:14:15.762Z,3.53
2023-05-09T02:17:18.508Z,3.40
2023-05-09T02:20:20.575Z,2.85
2023-05-09T02:23:22.350Z,3.10
2023-05-09T02:26:25.205Z,2.77
2023-05-09T02:29:37.910Z,3.17
2023-05-09T02:32:42.666Z,3.03
2023-05-09T02:35:50.719Z,2.78
2023-05-09T02:38:52.844Z,3.08
2023-05-09T02:41:54.294Z,3.37
2023-05-09T02:44:56.231Z,2.75
2023-05-09T02:47:58.539Z,2.90
2023-05-09T02:50:59.972Z,3.15
2023-05-09T02:54:01.622Z,2.80
2023-05-09T02:57:03.308Z,2.97
2023-05-09T03:00:08.837Z,3.00
2023-05-09T03:03:11.260Z,2.85
2023-05-09T03:06:13.625Z,2.90
2023-05-09T03:09:15.144Z,2.90
2023-05-09T03:12:16.864Z,3.17
2023-05-09T03:15:18.718Z,2.83
2023-05-09T03:18:20.823Z,3.10
2023-05-09T03:21:22.706Z,2.92
2023-05-09T03:24:27.501Z,3.00
2023-05-09T03:27:29.412Z,2.80
2023-05-09T03:30:31.000Z,2.63
2023-05-09T03:33:33.712Z,3.00
2023-05-09T03:36:35.200Z,3.13
2023-05-09T03:39:36.828Z,3.05
2023-05-09T03:42:38.500Z,2.87
2023-05-09T03:45:40.097Z,3.00
2023-05-09T03:48:42.385Z,3.05
2023-05-09T03:51:44.118Z,2.80
2023-05-09T03:54:48.721Z,2.90
2023-05-09T03:57:50.205Z,2.80
2023-05-09T04:00:51.960Z,3.10
2023-05-09T04:03:54.349Z,3.03
2023-05-09T04:06:56.416Z,2.90
2023-05-09T04:09:58.073Z,3.03
2023-05-09T04:12:59.843Z,3.03
2023-05-09T04:16:01.559Z,2.97
2023-05-09T04:19:04.145Z,3.20
2023-05-09T04:22:05.522Z,3.20
2023-05-09T04:25:11.656Z,3.33
2023-05-09T04:28:13.239Z,2.83
2023-05-09T04:31:15.049Z,3.17
2023-05-09T04:34:17.471Z,3.20
2023-05-09T04:37:19.702Z,3.40
2023-05-09T04:40:21.235Z,2.92
2023-05-09T04:43:25.708Z,3.03
2023-05-09T04:46:27.117Z,3.30
2023-05-09T04:49:29.380Z,3.47
2023-05-09T04:52:30.977Z,3.35
2023-05-09T04:55:32.465Z,3.55
2023-05-09T04:58:37.698Z,3.40
2023-05-09T05:01:39.101Z,3.22
2023-05-09T05:04:41.614Z,3.38
2023-05-09T05:07:43.268Z,3.20
2023-05-09T05:10:44.724Z,3.47
2023-05-09T05:13:46.391Z,3.37
2023-05-09T05:16:47.972Z,3.60
2023-05-09T05:19:50.216Z,3.45
2023-05-09T05:22:53.894Z,3.55
2023-05-09T05:25:55.411Z,3.30
2023-05-09T05:28:56.970Z,3.10
2023-05-09T05:31:58.530Z,3.60
2023-05-09T05:35:01.976Z,3.35
2023-05-09T05:38:03.543Z,3.55
2023-05-09T05:41:05.632Z,3.67
2023-05-09T05:44:09.664Z,3.40
2023-05-09T05:47:11.023Z,3.28
2023-05-09T05:50:13.618Z,3.80
2023-05-09T05:53:15.319Z,3.38
2023-05-09T05:56:16.905Z,3.15
2023-05-09T05:59:18.346Z,2.97
2023-05-09T06:02:19.873Z,3.50
2023-05-09T06:05:22.000Z,3.70
2023-05-09T06:08:23.603Z,3.67
2023-05-09T06:11:25.076Z,3.28
2023-05-09T06:14:26.939Z,3.10
2023-05-09T06:17:28.740Z,3.92
2023-05-09T06:20:30.854Z,3.17
2023-05-09T06:23:32.519Z,3.10
2023-05-09T06:26:33.881Z,2.95
2023-05-09T06:29:35.468Z,3.10
2023-05-09T06:32:36.874Z,2.80
2023-05-09T06:35:39.187Z,2.75
2023-05-09T06:38:40.522Z,2.90
2023-05-09T06:41:42.168Z,3.08
2023-05-09T06:44:43.582Z,2.73
2023-05-09T06:47:45.242Z,3.30
2023-05-09T06:50:48.293Z,3.00
2023-05-09T06:53:50.282Z,3.28
2023-05-09T06:56:51.816Z,2.80
2023-05-09T06:59:53.165Z,3.20
2023-05-09T07:02:55.257Z,2.97
2023-05-09T07:05:58.381Z,3.20
2023-05-09T07:09:03.401Z,3.30
2023-05-09T07:12:05.661Z,3.30
2023-05-09T07:15:08.411Z,2.93
2023-05-09T07:18:10.012Z,2.92
2023-05-09T07:21:12.518Z,2.97
2023-05-09T07:24:14.099Z,2.67
2023-05-09T07:27:15.554Z,2.75
2023-05-09T07:30:17.251Z,2.70
2023-05-09T07:33:19.056Z,2.97
2023-05-09T07:36:21.350Z,3.28
2023-05-09T07:39:22.831Z,2.72
2023-05-09T07:42:24.441Z,2.80
2023-05-09T07:45:25.917Z,3.20
2023-05-09T07:48:27.539Z,2.58
2023-05-09T07:51:29.703Z,3.03
2023-05-09T07:54:31.536Z,3.20
2023-05-09T07:57:33.009Z,3.07
2023-05-09T08:00:34.596Z,2.60
2023-05-09T08:03:36.187Z,2.80
2023-05-09T08:06:38.559Z,2.75
2023-05-09T08:09:39.995Z,3.10
2023-05-09T08:12:41.783Z,2.90
2023-05-09T08:15:43.698Z,3.10
2023-05-09T08:18:45.876Z,2.88
2023-05-09T08:21:48.366Z,2.60
2023-05-09T08:24:50.210Z,3.05
2023-05-09T08:27:53.043Z,2.77
2023-05-09T08:30:56.350Z,2.50
2023-05-09T08:33:58.325Z,2.85
2023-05-09T08:37:00.574Z,2.90
2023-05-09T08:40:07.040Z,2.60
2023-05-09T08:43:08.891Z,2.77
2023-05-09T08:46:13.173Z,2.77
2023-05-09T08:49:15.696Z,2.63
2023-05-09T08:52:18.564Z,2.80
2023-05-09T08:55:20.491Z,2.85
2023-05-09T08:58:22.418Z,3.00
2023-05-09T09:01:26.190Z,3.00
2023-05-09T09:04:27.990Z,2.90
2023-05-09T09:07:33.298Z,2.75
2023-05-09T09:10:35.198Z,2.80
2023-05-09T09:13:40.290Z,2.70
2023-05-09T09:16:44.724Z,2.97
2023-05-09T09:19:49.522Z,2.50
2023-05-09T09:22:55.234Z,2.80
2023-05-09T09:26:01.254Z,2.90
2023-05-09T09:29:03.330Z,2.70
2023-05-09T09:32:06.696Z,2.90
2023-05-09T09:35:10.342Z,2.70
2023-05-09T09:38:15.018Z,3.10
2023-05-09T09:41:16.729Z,3.20
2023-05-09T09:44:19.282Z,3.17
2023-05-09T09:47:20.975Z,2.93
2023-05-09T09:50:24.076Z,3.10
2023-05-09T09:53:29.732Z,2.80
2023-05-09T09:56:41.947Z,2.80
2023-05-09T09:59:58.373Z,2.80
2023-05-09T10:03:00.667Z,2.80
2023-05-09T10:06:02.266Z,2.53
2023-05-09T10:09:04.639Z,2.90
2023-05-09T10:12:07.990Z,2.80
2023-05-09T10:15:11.888Z,2.80
2023-05-09T10:18:19.255Z,2.70
2023-05-09T10:21:20.870Z,2.45
2023-05-09T10:24:28.314Z,2.70
2023-05-09T10:27:33.993Z,2.50
2023-05-09T10:30:37.722Z,2.50
2023-05-09T10:33:46.047Z,2.70
2023-05-09T10:36:48.695Z,2.80
2023-05-09T10:39:53.037Z,2.42
2023-05-09T10:42:54.672Z,2.58
2023-05-09T10:45:56.330Z,2.60
2023-05-09T10:48:58.473Z,2.60
2023-05-09T10:52:00.082Z,2.70
2023-05-09T10:55:03.874Z,2.42
2023-05-09T10:58:23.894Z,2.50
2023-05-09T11:01:30.365Z,3.00
2023-05-09T11:04:32.611Z,2.90
2023-05-09T11:07:34.106Z,2.80
2023-05-09T11:10:42.474Z,3.10
2023-05-09T11:13:46.088Z,2.38
2023-05-09T11:16:57.498Z,2.73
2023-05-09T11:20:05.296Z,2.90
2023-05-09T11:23:11.116Z,2.78
2023-05-09T11:26:15.553Z,2.50
2023-05-09T11:29:17.908Z,2.80
2023-05-09T11:32:20.348Z,2.40
2023-05-09T11:35:23.175Z,2.40
2023-05-09T11:38:25.063Z,2.60
2023-05-09T11:41:27.559Z,2.90
2023-05-09T11:44:32.692Z,2.60
2023-05-09T11:47:36.523Z,2.90
2023-05-09T11:50:38.039Z,2.70
2023-05-09T11:53:45.955Z,2.78
2023-05-09T11:56:48.543Z,2.65
2023-05-09T11:59:50.378Z,2.88
2023-05-09T12:02:52.726Z,2.97
2023-05-09T12:05:54.957Z,2.50
2023-05-09T12:08:56.853Z,2.70
2023-05-09T12:12:00.451Z,2.92
2023-05-09T12:15:04.231Z,2.90
2023-05-09T12:18:07.811Z,2.83
2023-05-09T12:21:09.485Z,2.77
2023-05-09T12:24:11.066Z,2.55
2023-05-09T12:27:13.529Z,2.72
2023-05-09T12:30:15.535Z,2.20
2023-05-09T12:33:17.895Z,2.40
2023-05-09T12:36:19.472Z,2.83
2023-05-09T12:39:22.247Z,3.00
2023-05-09T12:42:27.114Z,2.15
2023-05-09T12:45:28.532Z,2.70
2023-05-09T12:48:34.784Z,3.13
2023-05-09T12:51:36.792Z,3.03
2023-05-09T12:54:38.263Z,2.58
2023-05-09T12:57:41.263Z,3.10
2023-05-09T13:00:43.131Z,2.70
2023-05-09T13:03:44.661Z,2.77
2023-05-09T13:06:51.233Z,2.90
2023-05-09T13:09:56.560Z,2.90
2023-05-09T13:12:58.841Z,2.90
2023-05-09T13:16:00.403Z,2.92
2023-05-09T13:19:01.956Z,2.63
2023-05-09T13:22:03.491Z,2.67
2023-05-09T13:25:05.894Z,2.70
2023-05-09T13:28:08.446Z,2.63
2023-05-09T13:31:10.214Z,2.70
2023-05-09T13:34:11.702Z,2.90
2023-05-09T13:37:13.212Z,2.70
2023-05-09T13:40:14.806Z,2.80
2023-05-09T13:43:17.402Z,2.70
2023-05-09T13:46:18.928Z,2.67
2023-05-09T13:49:20.933Z,3.20
2023-05-09T13:52:23.514Z,2.80
2023-05-09T13:55:25.717Z,2.53
2023-05-09T13:58:28.515Z,2.90
2023-05-09T14:01:30.340Z,2.35
2023-05-09T14:04:32.213Z,2.67
2023-05-09T14:07:33.846Z,2.77
2023-05-09T14:10:35.364Z,2.60
2023-05-09T14:13:37.733Z,2.30
2023-05-09T14:16:39.907Z,2.58
2023-05-09T14:19:41.584Z,2.80
2023-05-09T14:22:43.123Z,2.67
2023-05-09T14:25:44.670Z,2.80
2023-05-09T14:28:46.803Z,2.70
2023-05-09T14:31:48.316Z,2.65
2023-05-09T14:34:50.157Z,3.00
2023-05-09T14:37:51.560Z,2.70
2023-05-09T14:40:53.346Z,2.70
2023-05-09T14:43:55.497Z,3.10
2023-05-09T14:46:56.974Z,2.60
2023-05-09T14:49:58.400Z,2.47
2023-05-09T14:53:00.481Z,2.40
2023-05-09T14:56:02.432Z,2.70
2023-05-09T14:59:04.682Z,2.67
2023-05-09T15:02:06.677Z,2.55
2023-05-09T15:05:09.250Z,2.67
2023-05-09T15:08:10.751Z,2.60
2023-05-09T15:11:12.148Z,2.53
2023-05-09T15:14:14.457Z,2.70
2023-05-09T15:17:15.870Z,3.05
2023-05-09T15:20:18.792Z,2.90
2023-05-09T15:23:20.534Z,2.27
2023-05-09T15:26:21.953Z,2.35
2023-05-09T15:29:24.031Z,2.58
2023-05-09T15:32:26.255Z,2.30
2023-05-09T15:35:27.673Z,2.73
2023-05-09T15:38:29.479Z,2.40
2023-05-09T15:41:31.535Z,2.60
2023-05-09T15:44:33.828Z,2.50
2023-05-09T15:47:35.401Z,2.53
2023-05-09T15:50:37.343Z,2.30
2023-05-09T15:53:38.761Z,2.30
2023-05-09T15:56:40.418Z,2.40
2023-05-09T15:59:42.422Z,2.47
2023-05-09T16:02:44.228Z,2.47
2023-05-09T16:05:45.983Z,2.60
2023-05-09T16:08:47.493Z,2.40
2023-05-09T16:11:49.048Z,2.40
2023-05-09T16:14:51.163Z,2.40
2023-05-09T16:17:54.253Z,2.63
2023-05-09T16:20:55.966Z,2.43
2023-05-09T16:23:57.580Z,2.60
2023-05-09T16:26:59.213Z,2.65
2023-05-09T16:30:01.275Z,2.30
2023-05-09T16:33:02.976Z,2.27
2023-05-09T16:36:05.197Z,2.60
2023-05-09T16:39:06.984Z,2.58
2023-05-09T16:42:09.116Z,2.70
2023-05-09T16:45:11.845Z,3.10
2023-05-09T16:48:13.330Z,2.73
2023-05-09T16:51:14.865Z,2.33
2023-05-09T16:54:16.608Z,2.47
2023-05-09T16:57:18.311Z,3.72
2023-05-09T17:00:21.969Z,2.78
2023-05-09T17:03:23.495Z,2.90
2023-05-09T17:06:25.646Z,2.67
2023-05-09T17:09:27.036Z,3.00
2023-05-09T17:12:28.570Z,2.78
2023-05-09T17:15:30.690Z,2.80
2023-05-09T17:18:37.611Z,2.77
2023-05-09T17:21:40.819Z,2.83
2023-05-09T17:24:42.203Z,3.03
2023-05-09T17:27:43.777Z,2.92
2023-05-09T17:30:45.952Z,3.00
2023-05-09T17:33:47.654Z,2.83
2023-05-09T17:36:49.328Z,2.90
2023-05-09T17:39:51.094Z,2.88
2023-05-09T17:42:52.781Z,2.92
2023-05-09T17:45:55.082Z,2.53
2023-05-09T17:48:57.056Z,3.10
2023-05-09T17:51:59.244Z,2.57
2023-05-09T17:55:00.979Z,2.70
2023-05-09T17:58:02.695Z,2.97
2023-05-09T18:01:05.008Z,3.20
2023-05-09T18:04:06.756Z,3.10
2023-05-09T18:07:09.954Z,2.80
2023-05-09T18:10:12.074Z,2.83
2023-05-09T18:13:13.532Z,3.10
2023-05-09T18:16:15.532Z,2.67
2023-05-09T18:19:17.067Z,3.03
2023-05-09T18:22:18.628Z,3.00
2023-05-09T18:25:20.118Z,2.80
2023-05-09T18:28:24.388Z,2.58
2023-05-09T18:31:26.933Z,2.63
2023-05-09T18:34:28.377Z,3.00
2023-05-09T18:37:30.137Z,3.13
2023-05-09T18:40:31.824Z,2.83
2023-05-09T18:43:33.278Z,3.15
2023-05-09T18:46:35.375Z,2.80
2023-05-09T18:49:38.069Z,3.00
2023-05-09T18:52:39.931Z,2.92
2023-05-09T18:55:42.009Z,2.80
2023-05-09T18:58:43.911Z,2.90
2023-05-09T19:01:45.992Z,3.00
2023-05-09T19:04:49.635Z,3.10
2023-05-09T19:07:51.879Z,2.95
2023-05-09T19:10:55.064Z,2.88
2023-05-09T19:13:56.558Z,2.70
2023-05-09T19:16:58.778Z,3.10
2023-05-09T19:20:01.651Z,3.20
2023-05-09T19:23:03.668Z,2.70
2023-05-09T19:26:05.137Z,3.00
2023-05-09T19:29:07.360Z,2.60
2023-05-09T19:32:09.571Z,2.93
2023-05-09T19:35:10.926Z,2.85
2023-05-09T19:38:12.343Z,2.80
2023-05-09T19:41:13.778Z,2.92
2023-05-09T19:44:15.063Z,2.83
2023-05-09T19:47:17.185Z,2.40
2023-05-09T19:50:18.946Z,2.97
2023-05-09T19:53:20.435Z,2.75
2023-05-09T19:56:22.441Z,2.70
2023-05-09T19:59:23.882Z,2.50
2023-05-09T20:02:25.972Z,2.70
2023-05-09T20:05:27.476Z,2.47
2023-05-09T20:08:29.255Z,2.67
2023-05-09T20:11:30.694Z,2.70
2023-05-09T20:14:32.081Z,2.90
2023-05-09T20:17:34.101Z,2.60
2023-05-09T20:20:35.590Z,2.95
2023-05-09T20:23:37.388Z,2.83
2023-05-09T20:26:38.977Z,2.83
2023-05-09T20:29:40.434Z,2.53
2023-05-09T20:32:42.827Z,2.87
2023-05-09T20:35:44.218Z,3.10
2023-05-09T20:38:45.670Z,3.10
2023-05-09T20:41:48.187Z,2.90
2023-05-09T20:44:50.747Z,3.10
2023-05-09T20:47:52.892Z,2.87
2023-05-09T20:50:54.227Z,2.83
2023-05-09T20:53:55.649Z,2.90
2023-05-09T20:56:57.100Z,3.20
2023-05-09T20:59:58.464Z,3.23
2023-05-09T21:03:00.576Z,3.00
2023-05-09T21:06:01.964Z,3.00
2023-05-09T21:09:04.199Z,3.35
2023-05-09T21:12:06.242Z,3.20
2023-05-09T21:15:08.541Z,3.50
2023-05-09T21:18:10.777Z,3.00
2023-05-09T21:21:12.188Z,2.90
2023-05-09T21:24:13.575Z,3.28
2023-05-09T21:27:14.850Z,3.00
2023-05-09T21:30:16.826Z,3.40
2023-05-09T21:33:19.100Z,3.30
2023-05-09T21:36:20.553Z,3.55
2023-05-09T21:39:21.862Z,3.40
2023-05-09T21:42:23.397Z,3.50
2023-05-09T21:45:24.707Z,3.60
2023-05-09T21:48:26.801Z,3.77
2023-05-09T21:51:28.469Z,3.60
2023-05-09T21:54:29.961Z,3.90
2023-05-09T21:57:31.420Z,3.67
2023-05-09T22:00:32.768Z,3.87
2023-05-09T22:03:35.112Z,3.70
2023-05-09T22:06:36.513Z,3.70
2023-05-09T22:09:37.887Z,3.80
2023-05-09T22:12:39.369Z,3.40
2023-05-09T22:15:41.895Z,4.37
2023-05-09T22:18:43.970Z,3.87
2023-05-09T22:21:45.241Z,4.07
2023-05-09T22:24:46.684Z,4.03
2023-05-09T22:27:47.934Z,3.60
2023-05-09T22:30:49.386Z,4.07
2023-05-09T22:33:51.593Z,4.63
2023-05-09T22:36:54.201Z,3.78
2023-05-09T22:39:55.664Z,4.28
2023-05-09T22:42:57.126Z,3.80
2023-05-09T22:45:58.607Z,3.85
2023-05-09T22:49:00.568Z,3.90
2023-05-09T22:52:02.009Z,4.20
2023-05-09T22:55:03.803Z,4.22
2023-05-09T22:58:05.801Z,4.40
2023-05-09T23:01:07.251Z,4.30
2023-05-09T23:04:09.267Z,4.07
2023-05-09T23:07:10.824Z,3.90
2023-05-09T23:10:12.111Z,4.70
2023-05-09T23:13:13.611Z,4.40
2023-05-09T23:16:15.503Z,4.40
2023-05-09T23:19:18.869Z,4.27
2023-05-09T23:22:20.286Z,4.63
2023-05-09T23:25:21.750Z,4.50
2023-05-09T23:28:24.549Z,5.07
2023-05-09T23:31:26.022Z,4.40
2023-05-09T23:34:28.745Z,4.70
2023-05-09T23:37:30.213Z,4.60
2023-05-09T23:40:31.498Z,4.70
2023-05-09T23:43:33.457Z,4.53
2023-05-09T23:46:34.842Z,4.68
2023-05-09T23:49:36.927Z,4.90
2023-05-09T23:52:38.351Z,4.80
2023-05-09T23:55:39.595Z,4.78
2023-05-09T23:58:42.056Z,4.63
